createdAt,value
2023-04-08T00:00:39.436Z,0.00
2023-04-08T00:01:39.458Z,0.00
2023-04-08T00:02:39.616Z,0.00
2023-04-08T00:03:39.546Z,0.00
2023-04-08T00:04:39.483Z,0.00
2023-04-08T00:05:39.377Z,0.00
2023-04-08T00:06:39.654Z,0.00
2023-04-08T00:07:39.382Z,0.00
2023-04-08T00:08:39.678Z,0.00
2023-04-08T00:09:39.366Z,0.00
2023-04-08T00:10:39.323Z,0.00
2023-04-08T00:11:39.326Z,0.00
2023-04-08T00:12:39.721Z,0.00
2023-04-08T00:13:39.321Z,0.00
2023-04-08T00:14:39.300Z,0.00
2023-04-08T00:15:39.334Z,0.00
2023-04-08T00:16:39.364Z,0.00
2023-04-08T00:17:39.331Z,0.00
2023-04-08T00:18:39.242Z,0.00
2023-04-08T00:19:39.274Z,0.00
2023-04-08T00:20:39.270Z,0.00
2023-04-08T00:21:39.204Z,0.00
2023-04-08T00:22:39.257Z,0.00
2023-04-08T00:23:39.222Z,0.00
2023-04-08T00:24:39.206Z,0.00
2023-04-08T00:25:39.221Z,0.00
2023-04-08T00:26:39.184Z,0.00
2023-04-08T00:27:39.147Z,0.00
2023-04-08T00:28:39.144Z,0.00
2023-04-08T00:29:39.156Z,0.00
2023-04-08T00:30:39.152Z,0.00
2023-04-08T00:31:39.102Z,0.00
2023-04-08T00:32:39.117Z,0.00
2023-04-08T00:33:39.079Z,0.00
2023-04-08T00:34:39.073Z,0.00
2023-04-08T00:35:39.151Z,0.00
2023-04-08T00:36:39.067Z,0.00
2023-04-08T00:37:39.056Z,0.00
2023-04-08T00:38:39.049Z,0.00
2023-04-08T00:39:39.025Z,0.00
2023-04-08T00:40:39.019Z,0.00
2023-04-08T00:41:39.012Z,0.00
2023-04-08T00:42:39.205Z,0.00
2023-04-08T00:43:39.038Z,0.00
2023-04-08T00:44:39.229Z,0.00
2023-04-08T00:45:39.110Z,0.00
2023-04-08T00:46:39.006Z,0.00
2023-04-08T00:47:38.973Z,0.00
2023-04-08T00:48:38.935Z,0.00
2023-04-08T00:49:38.961Z,0.00
2023-04-08T00:50:38.896Z,0.00
2023-04-08T00:51:38.895Z,0.00
2023-04-08T00:52:38.872Z,0.00
2023-04-08T00:53:38.915Z,0.00
2023-04-08T00:54:38.916Z,0.00
2023-04-08T00:55:38.868Z,0.00
2023-04-08T00:56:38.837Z,0.00
2023-04-08T00:57:38.857Z,0.00
2023-04-08T00:58:38.829Z,0.00
2023-04-08T00:59:38.835Z,0.00
2023-04-08T01:00:38.796Z,0.00
2023-04-08T01:01:38.876Z,0.00
2023-04-08T01:02:38.874Z,0.00
2023-04-08T01:03:38.916Z,0.00
2023-04-08T01:04:38.760Z,0.00
2023-04-08T01:05:38.741Z,0.00
2023-04-08T01:06:38.748Z,0.00
2023-04-08T01:07:38.761Z,0.00
2023-04-08T01:08:38.736Z,0.00
2023-04-08T01:09:38.707Z,0.00
2023-04-08T01:10:38.676Z,0.00
2023-04-08T01:11:38.711Z,0.00
2023-04-08T01:12:38.673Z,0.00
2023-04-08T01:13:38.699Z,0.00
2023-04-08T01:14:38.672Z,0.00
2023-04-08T01:15:38.704Z,0.00
2023-04-08T01:16:38.634Z,0.00
2023-04-08T01:17:38.646Z,0.00
2023-04-08T01:18:38.654Z,0.00
2023-04-08T01:19:38.597Z,0.00
2023-04-08T01:20:38.594Z,0.00
2023-04-08T01:21:38.578Z,0.00
2023-04-08T01:22:38.551Z,0.00
2023-04-08T01:23:38.594Z,0.00
2023-04-08T01:24:38.542Z,0.00
2023-04-08T01:25:38.563Z,0.00
2023-04-08T01:26:38.505Z,0.00
2023-04-08T01:27:38.546Z,0.00
2023-04-08T01:28:38.496Z,0.00
2023-04-08T01:29:38.500Z,0.00
2023-04-08T01:30:38.524Z,0.00
2023-04-08T01:31:38.605Z,0.00
2023-04-08T01:32:38.517Z,0.00
2023-04-08T01:33:38.432Z,0.00
2023-04-08T01:34:38.449Z,0.00
2023-04-08T01:35:38.540Z,0.00
2023-04-08T01:36:38.450Z,0.00
2023-04-08T01:37:38.432Z,0.00
2023-04-08T01:38:38.406Z,0.00
2023-04-08T01:39:38.385Z,0.00
2023-04-08T01:40:38.366Z,0.00
2023-04-08T01:41:38.401Z,0.00
2023-04-08T01:42:38.349Z,0.00
2023-04-08T01:43:38.370Z,0.00
2023-04-08T01:44:38.346Z,0.00
2023-04-08T01:45:38.324Z,0.00
2023-04-08T01:46:38.354Z,0.00
2023-04-08T01:47:38.351Z,0.00
2023-04-08T01:48:38.334Z,0.00
2023-04-08T01:49:38.311Z,0.00
2023-04-08T01:50:38.252Z,0.00
2023-04-08T01:51:38.915Z,0.00
2023-04-08T01:52:38.261Z,0.00
2023-04-08T01:53:38.247Z,0.00
2023-04-08T01:54:38.235Z,0.00
2023-04-08T01:55:38.210Z,0.00
2023-04-08T01:56:38.223Z,0.00
2023-04-08T01:57:38.182Z,0.00
2023-04-08T01:58:38.189Z,0.00
2023-04-08T01:59:38.190Z,0.00
2023-04-08T02:00:38.180Z,0.00
2023-04-08T02:01:38.291Z,0.00
2023-04-08T02:02:38.275Z,0.00
2023-04-08T02:03:38.179Z,0.00
2023-04-08T02:04:38.173Z,0.00
2023-04-08T02:05:38.128Z,0.00
2023-04-08T02:06:38.100Z,0.00
2023-04-08T02:07:38.088Z,0.00
2023-04-08T02:08:38.054Z,0.00
2023-04-08T02:09:38.130Z,0.00
2023-04-08T02:10:38.059Z,0.00
2023-04-08T02:11:38.114Z,0.00
2023-04-08T02:12:38.036Z,0.00
2023-04-08T02:13:38.051Z,0.00
2023-04-08T02:14:37.995Z,0.00
2023-04-08T02:15:38.001Z,0.00
2023-04-08T02:16:38.134Z,0.00
2023-04-08T02:17:38.041Z,0.00
2023-04-08T02:18:37.962Z,0.00
2023-04-08T02:19:37.973Z,0.00
2023-04-08T02:20:37.988Z,0.00
2023-04-08T02:21:37.925Z,0.00
2023-04-08T02:22:37.946Z,0.00
2023-04-08T02:23:37.930Z,0.00
2023-04-08T02:24:37.888Z,0.00
2023-04-08T02:25:37.914Z,0.00
2023-04-08T02:26:37.872Z,0.00
2023-04-08T02:27:37.928Z,0.00
2023-04-08T02:28:37.862Z,0.00
2023-04-08T02:29:37.888Z,0.00
2023-04-08T02:30:37.851Z,0.00
2023-04-08T02:31:37.833Z,0.00
2023-04-08T02:32:37.875Z,0.00
2023-04-08T02:33:37.799Z,0.00
2023-04-08T02:34:37.783Z,0.00
2023-04-08T02:35:37.829Z,0.00
2023-04-08T02:36:37.822Z,0.00
2023-04-08T02:37:37.777Z,0.00
2023-04-08T02:38:37.752Z,0.00
2023-04-08T02:39:37.739Z,0.00
2023-04-08T02:40:37.758Z,0.00
2023-04-08T02:41:37.739Z,0.00
2023-04-08T02:42:37.724Z,0.00
2023-04-08T02:43:37.712Z,0.00
2023-04-08T02:44:37.725Z,0.00
2023-04-08T02:45:37.684Z,0.00
2023-04-08T02:46:37.691Z,0.00
2023-04-08T02:47:37.693Z,0.00
2023-04-08T02:48:37.626Z,0.00
2023-04-08T02:49:37.675Z,0.00
2023-04-08T02:50:37.603Z,0.00
2023-04-08T02:51:37.597Z,0.00
2023-04-08T02:52:37.616Z,0.00
2023-04-08T02:53:37.580Z,0.00
2023-04-08T02:54:37.589Z,0.00
2023-04-08T02:55:37.582Z,0.00
2023-04-08T02:56:37.532Z,0.00
2023-04-08T02:57:37.558Z,0.00
2023-04-08T02:58:37.651Z,0.00
2023-04-08T02:59:37.540Z,0.00
2023-04-08T03:00:37.533Z,0.00
2023-04-08T03:01:37.594Z,0.00
2023-04-08T03:02:37.698Z,0.00
2023-04-08T03:03:37.538Z,0.00
2023-04-08T03:04:37.532Z,0.00
2023-04-08T03:05:37.501Z,0.00
2023-04-08T03:06:37.472Z,0.00
2023-04-08T03:07:37.482Z,0.00
2023-04-08T03:08:37.448Z,0.00
2023-04-08T03:09:37.396Z,0.00
2023-04-08T03:10:37.401Z,0.00
2023-04-08T03:11:37.391Z,0.00
2023-04-08T03:12:37.439Z,0.00
2023-04-08T03:13:37.356Z,0.00
2023-04-08T03:14:37.367Z,0.00
2023-04-08T03:15:37.438Z,0.00
2023-04-08T03:16:37.429Z,0.00
2023-04-08T03:17:37.480Z,0.00
2023-04-08T03:18:37.328Z,0.00
2023-04-08T03:19:37.339Z,0.00
2023-04-08T03:20:37.286Z,0.00
2023-04-08T03:21:37.359Z,0.00
2023-04-08T03:22:37.303Z,0.00
2023-04-08T03:23:37.262Z,0.00
2023-04-08T03:24:37.266Z,0.00
2023-04-08T03:25:37.297Z,0.00
2023-04-08T03:26:37.234Z,0.00
2023-04-08T03:27:37.224Z,0.00
2023-04-08T03:28:37.241Z,0.00
2023-04-08T03:29:37.286Z,0.00
2023-04-08T03:30:37.180Z,0.00
2023-04-08T03:31:37.196Z,0.00
2023-04-08T03:32:37.206Z,0.00
2023-04-08T03:33:37.163Z,0.00
2023-04-08T03:34:37.172Z,0.00
2023-04-08T03:35:37.220Z,0.00
2023-04-08T03:36:37.144Z,0.00
2023-04-08T03:37:37.100Z,0.00
2023-04-08T03:38:37.140Z,0.00
2023-04-08T03:39:37.113Z,0.00
2023-04-08T03:40:37.071Z,0.00
2023-04-08T03:41:37.143Z,0.00
2023-04-08T03:42:37.087Z,0.00
2023-04-08T03:43:38.113Z,0.00
2023-04-08T03:44:37.114Z,0.00
2023-04-08T03:45:37.076Z,0.00
2023-04-08T03:46:37.059Z,0.00
2023-04-08T03:47:37.064Z,0.00
2023-04-08T03:48:37.067Z,0.00
2023-04-08T03:49:37.025Z,0.00
2023-04-08T03:50:36.984Z,0.00
2023-04-08T03:51:37.031Z,0.00
2023-04-08T03:52:36.959Z,0.00
2023-04-08T03:53:36.957Z,0.00
2023-04-08T03:54:36.926Z,0.00
2023-04-08T03:55:36.936Z,0.00
2023-04-08T03:56:36.930Z,0.00
2023-04-08T03:57:36.888Z,0.00
2023-04-08T03:58:36.914Z,0.00
2023-04-08T03:59:36.960Z,0.00
2023-04-08T04:00:36.866Z,0.00
2023-04-08T04:01:36.914Z,0.00
2023-04-08T04:02:37.023Z,0.00
2023-04-08T04:03:37.028Z,0.00
2023-04-08T04:04:36.941Z,0.00
2023-04-08T04:05:36.900Z,0.00
2023-04-08T04:06:36.820Z,0.00
2023-04-08T04:07:36.816Z,0.00
2023-04-08T04:08:36.822Z,0.00
2023-04-08T04:09:36.817Z,0.00
2023-04-08T04:10:36.848Z,0.00
2023-04-08T04:11:36.841Z,0.00
2023-04-08T04:12:36.781Z,0.00
2023-04-08T04:13:36.702Z,0.00
2023-04-08T04:14:36.761Z,0.00
2023-04-08T04:15:36.734Z,0.00
2023-04-08T04:16:36.689Z,0.00
2023-04-08T04:17:36.777Z,0.00
2023-04-08T04:18:36.711Z,0.00
2023-04-08T04:19:36.681Z,0.00
2023-04-08T04:20:36.705Z,0.00
2023-04-08T04:21:36.583Z,0.00
2023-04-08T04:22:36.693Z,0.00
2023-04-08T04:23:36.572Z,0.00
2023-04-08T04:24:36.564Z,0.00
2023-04-08T04:25:36.614Z,0.00
2023-04-08T04:26:36.557Z,0.00
2023-04-08T04:27:36.543Z,0.00
2023-04-08T04:28:36.500Z,0.00
2023-04-08T04:29:36.536Z,0.00
2023-04-08T04:30:36.498Z,0.00
2023-04-08T04:31:36.535Z,0.00
2023-04-08T04:32:36.563Z,0.00
2023-04-08T04:33:36.478Z,0.00
2023-04-08T04:34:36.432Z,0.00
2023-04-08T04:35:36.519Z,0.00
2023-04-08T04:36:36.448Z,0.00
2023-04-08T04:37:36.487Z,0.00
2023-04-08T04:38:36.504Z,0.00
2023-04-08T04:39:36.398Z,0.00
2023-04-08T04:40:36.384Z,0.00
2023-04-08T04:41:36.356Z,0.00
2023-04-08T04:42:36.378Z,0.00
2023-04-08T04:43:36.430Z,0.00
2023-04-08T04:44:36.423Z,0.00
2023-04-08T04:45:36.373Z,0.00
2023-04-08T04:46:36.362Z,0.00
2023-04-08T04:47:36.365Z,0.00
2023-04-08T04:48:36.334Z,0.00
2023-04-08T04:49:36.356Z,5.62
2023-04-08T04:50:36.336Z,5.62
2023-04-08T04:51:36.264Z,5.62
2023-04-08T04:52:36.272Z,5.62
2023-04-08T04:53:36.234Z,5.62
2023-04-08T04:54:36.231Z,5.62
2023-04-08T04:55:38.680Z,5.62
2023-04-08T04:56:36.232Z,5.62
2023-04-08T04:57:36.255Z,5.62
2023-04-08T04:58:36.181Z,5.62
2023-04-08T04:59:36.194Z,11.25
2023-04-08T05:00:36.185Z,11.25
2023-04-08T05:01:36.264Z,11.25
2023-04-08T05:02:36.416Z,11.25
2023-04-08T05:03:36.183Z,11.25
2023-04-08T05:04:36.233Z,11.25
2023-04-08T05:05:36.116Z,11.25
2023-04-08T05:06:36.119Z,11.25
2023-04-08T05:07:36.115Z,16.88
2023-04-08T05:08:36.129Z,16.88
2023-04-08T05:09:36.116Z,16.88
2023-04-08T05:10:36.087Z,16.88
2023-04-08T05:11:36.071Z,16.88
2023-04-08T05:12:36.046Z,16.88
2023-04-08T05:13:36.148Z,16.88
2023-04-08T05:14:36.061Z,22.50
2023-04-08T05:15:36.036Z,22.50
2023-04-08T05:16:36.158Z,22.50
2023-04-08T05:17:36.040Z,22.50
2023-04-08T05:18:36.032Z,22.50
2023-04-08T05:19:35.984Z,22.50
2023-04-08T05:20:35.989Z,22.50
2023-04-08T05:21:35.973Z,22.50
2023-04-08T05:22:35.952Z,28.12
2023-04-08T05:23:35.940Z,28.12
2023-04-08T05:24:35.933Z,28.12
2023-04-08T05:25:35.915Z,28.12
2023-04-08T05:26:35.903Z,28.12
2023-04-08T05:27:35.941Z,28.12
2023-04-08T05:28:35.894Z,28.12
2023-04-08T05:29:35.881Z,33.75
2023-04-08T05:30:35.872Z,33.75
2023-04-08T05:31:35.883Z,33.75
2023-04-08T05:32:35.866Z,33.75
2023-04-08T05:33:35.845Z,33.75
2023-04-08T05:34:35.835Z,33.75
2023-04-08T05:35:35.854Z,39.38
2023-04-08T05:36:35.790Z,39.38
2023-04-08T05:37:35.796Z,39.38
2023-04-08T05:38:35.798Z,39.38
2023-04-08T05:39:35.782Z,39.38
2023-04-08T05:40:35.768Z,45.00
2023-04-08T05:41:35.776Z,45.00
2023-04-08T05:42:35.735Z,45.00
2023-04-08T05:43:35.733Z,45.00
2023-04-08T05:44:35.751Z,45.00
2023-04-08T05:45:35.727Z,50.62
2023-04-08T05:46:35.759Z,50.62
2023-04-08T05:47:35.716Z,50.62
2023-04-08T05:48:35.693Z,50.62
2023-04-08T05:49:35.666Z,50.62
2023-04-08T05:50:35.670Z,50.62
2023-04-08T05:51:35.636Z,56.25
2023-04-08T05:52:35.664Z,56.25
2023-04-08T05:53:35.610Z,56.25
2023-04-08T05:54:35.600Z,56.25
2023-04-08T05:55:35.611Z,56.25
2023-04-08T05:56:35.593Z,56.25
2023-04-08T05:57:35.578Z,56.25
2023-04-08T05:58:35.595Z,61.88
2023-04-08T05:59:35.572Z,61.88
2023-04-08T06:00:35.541Z,61.88
2023-04-08T06:01:35.643Z,61.88
2023-04-08T06:02:35.629Z,61.88
2023-04-08T06:03:35.613Z,61.88
2023-04-08T06:04:35.611Z,61.88
2023-04-08T06:05:35.517Z,61.88
2023-04-08T06:06:35.489Z,61.88
2023-04-08T06:07:35.472Z,61.88
2023-04-08T06:08:35.457Z,61.88
2023-04-08T06:09:35.453Z,67.50
2023-04-08T06:10:35.450Z,67.50
2023-04-08T06:11:35.404Z,67.50
2023-04-08T06:12:35.432Z,67.50
2023-04-08T06:13:35.434Z,67.50
2023-04-08T06:14:35.406Z,67.50
2023-04-08T06:15:35.370Z,73.12
2023-04-08T06:16:35.428Z,73.12
2023-04-08T06:17:35.352Z,73.12
2023-04-08T06:18:35.344Z,73.12
2023-04-08T06:19:35.351Z,73.12
2023-04-08T06:20:35.336Z,73.12
2023-04-08T06:21:35.326Z,73.12
2023-04-08T06:22:35.310Z,78.75
2023-04-08T06:23:35.287Z,78.75
2023-04-08T06:24:35.270Z,78.75
2023-04-08T06:25:35.430Z,78.75
2023-04-08T06:26:35.263Z,78.75
2023-04-08T06:27:35.259Z,78.75
2023-04-08T06:28:35.256Z,78.75
2023-04-08T06:29:35.248Z,78.75
2023-04-08T06:30:35.224Z,78.75
2023-04-08T06:31:35.224Z,78.75
2023-04-08T06:32:35.257Z,78.75
2023-04-08T06:33:35.322Z,78.75
2023-04-08T06:34:35.158Z,78.75
2023-04-08T06:35:35.162Z,84.38
2023-04-08T06:36:35.157Z,84.38
2023-04-08T06:37:35.154Z,78.75
2023-04-08T06:38:35.140Z,78.75
2023-04-08T06:39:35.113Z,78.75
2023-04-08T06:40:35.137Z,78.75
2023-04-08T06:41:35.091Z,78.75
2023-04-08T06:42:35.087Z,78.75
2023-04-08T06:43:35.094Z,78.75
2023-04-08T06:44:35.069Z,78.75
2023-04-08T06:45:35.097Z,78.75
2023-04-08T06:46:35.075Z,78.75
2023-04-08T06:47:35.069Z,78.75
2023-04-08T06:48:35.019Z,78.75
2023-04-08T06:49:34.995Z,78.75
2023-04-08T06:50:35.003Z,84.38
2023-04-08T06:51:34.985Z,84.38
2023-04-08T06:52:35.002Z,90.00
2023-04-08T06:53:35.008Z,90.00
2023-04-08T06:54:34.953Z,95.62
2023-04-08T06:55:34.928Z,95.62
2023-04-08T06:56:34.936Z,101.25
2023-04-08T06:57:34.940Z,101.25
2023-04-08T06:58:34.901Z,101.25
2023-04-08T06:59:34.888Z,106.88
2023-04-08T07:00:34.896Z,112.50
2023-04-08T07:01:34.973Z,118.12
2023-04-08T07:02:34.956Z,123.75
2023-04-08T07:03:34.926Z,129.38
2023-04-08T07:04:34.864Z,129.38
2023-04-08T07:05:34.830Z,135.00
2023-04-08T07:06:34.816Z,140.62
2023-04-08T07:07:34.839Z,146.25
2023-04-08T07:08:34.833Z,146.25
2023-04-08T07:09:34.804Z,151.88
2023-04-08T07:10:34.787Z,157.50
2023-04-08T07:11:34.800Z,163.12
2023-04-08T07:12:34.753Z,163.12
2023-04-08T07:13:34.764Z,163.12
2023-04-08T07:14:34.751Z,163.12
2023-04-08T07:15:34.728Z,163.12
2023-04-08T07:16:34.752Z,163.12
2023-04-08T07:17:34.691Z,168.75
2023-04-08T07:18:34.748Z,174.38
2023-04-08T07:19:34.932Z,180.00
2023-04-08T07:20:34.778Z,185.62
2023-04-08T07:21:34.682Z,185.62
2023-04-08T07:22:34.648Z,191.25
2023-04-08T07:23:34.640Z,196.88
2023-04-08T07:24:34.688Z,202.50
2023-04-08T07:25:34.632Z,208.12
2023-04-08T07:26:34.619Z,208.12
2023-04-08T07:27:34.600Z,208.12
2023-04-08T07:28:34.662Z,208.12
2023-04-08T07:29:34.578Z,202.50
2023-04-08T07:30:34.616Z,202.50
2023-04-08T07:31:34.558Z,202.50
2023-04-08T07:32:34.592Z,202.50
2023-04-08T07:33:34.551Z,202.50
2023-04-08T07:34:34.513Z,202.50
2023-04-08T07:35:34.557Z,208.12
2023-04-08T07:36:34.496Z,208.12
2023-04-08T07:37:34.506Z,208.12
2023-04-08T07:38:34.511Z,208.12
2023-04-08T07:39:34.477Z,213.75
2023-04-08T07:40:34.443Z,208.12
2023-04-08T07:41:34.430Z,208.12
2023-04-08T07:42:34.458Z,202.50
2023-04-08T07:43:34.637Z,196.88
2023-04-08T07:44:34.430Z,191.25
2023-04-08T07:45:34.389Z,185.62
2023-04-08T07:46:34.525Z,180.00
2023-04-08T07:47:34.396Z,168.75
2023-04-08T07:48:34.411Z,163.12
2023-04-08T07:49:34.393Z,151.88
2023-04-08T07:50:34.361Z,151.88
2023-04-08T07:51:34.348Z,146.25
2023-04-08T07:52:34.313Z,140.62
2023-04-08T07:53:34.324Z,140.62
2023-04-08T07:54:34.322Z,135.00
2023-04-08T07:55:34.296Z,129.38
2023-04-08T07:56:34.296Z,123.75
2023-04-08T07:57:34.267Z,123.75
2023-04-08T07:58:34.242Z,118.12
2023-04-08T07:59:34.272Z,118.12
2023-04-08T08:00:34.238Z,112.50
2023-04-08T08:01:34.241Z,112.50
2023-04-08T08:02:34.252Z,112.50
2023-04-08T08:03:34.535Z,118.12
2023-04-08T08:04:34.316Z,118.12
2023-04-08T08:05:34.171Z,118.12
2023-04-08T08:06:34.179Z,112.50
2023-04-08T08:07:34.198Z,112.50
2023-04-08T08:08:34.147Z,112.50
2023-04-08T08:09:34.127Z,112.50
2023-04-08T08:10:34.132Z,106.88
2023-04-08T08:11:34.126Z,106.88
2023-04-08T08:12:34.107Z,106.88
2023-04-08T08:13:34.114Z,106.88
2023-04-08T08:14:34.084Z,106.88
2023-04-08T08:15:34.134Z,106.88
2023-04-08T08:16:34.115Z,101.25
2023-04-08T08:17:34.108Z,101.25
2023-04-08T08:18:34.048Z,95.62
2023-04-08T08:19:34.042Z,95.62
2023-04-08T08:20:34.056Z,95.62
2023-04-08T08:21:34.000Z,90.00
2023-04-08T08:22:35.430Z,90.00
2023-04-08T08:23:34.019Z,90.00
2023-04-08T08:24:33.982Z,90.00
2023-04-08T08:25:33.985Z,90.00
2023-04-08T08:26:34.002Z,90.00
2023-04-08T08:27:33.964Z,84.38
2023-04-08T08:28:33.940Z,78.75
2023-04-08T08:29:34.227Z,78.75
2023-04-08T08:30:35.034Z,78.75
2023-04-08T08:31:34.008Z,73.12
2023-04-08T08:32:33.919Z,73.12
2023-04-08T08:33:33.918Z,73.12
2023-04-08T08:34:33.866Z,78.75
2023-04-08T08:35:33.897Z,78.75
2023-04-08T08:36:34.811Z,78.75
2023-04-08T08:37:33.857Z,78.75
2023-04-08T08:38:33.891Z,84.38
2023-04-08T08:39:33.811Z,90.00
2023-04-08T08:40:33.798Z,90.00
2023-04-08T08:41:33.813Z,95.62
2023-04-08T08:42:34.448Z,95.62
2023-04-08T08:43:33.791Z,101.25
2023-04-08T08:44:33.766Z,101.25
2023-04-08T08:45:33.788Z,95.62
2023-04-08T08:46:33.798Z,95.62
2023-04-08T08:47:33.801Z,90.00
2023-04-08T08:48:33.738Z,90.00
2023-04-08T08:49:33.717Z,90.00
2023-04-08T08:50:33.687Z,95.62
2023-04-08T08:51:33.718Z,101.25
2023-04-08T08:52:33.683Z,106.88
2023-04-08T08:53:35.861Z,118.12
2023-04-08T08:54:33.720Z,118.12
2023-04-08T08:55:50.760Z,123.75
2023-04-08T08:56:33.803Z,123.75
2023-04-08T08:57:33.616Z,123.75
2023-04-08T08:58:33.608Z,123.75
2023-04-08T08:59:33.628Z,129.38
2023-04-08T09:00:34.740Z,135.00
2023-04-08T09:01:33.787Z,140.62
2023-04-08T09:02:33.998Z,146.25
2023-04-08T09:03:33.687Z,157.50
2023-04-08T09:04:33.689Z,163.12
2023-04-08T09:05:33.592Z,168.75
2023-04-08T09:06:33.542Z,168.75
2023-04-08T09:07:33.528Z,168.75
2023-04-08T09:08:33.522Z,168.75
2023-04-08T09:09:33.498Z,168.75
2023-04-08T09:10:33.474Z,174.38
2023-04-08T09:11:33.490Z,185.62
2023-04-08T09:12:33.484Z,191.25
2023-04-08T09:13:33.467Z,185.62
2023-04-08T09:14:33.425Z,174.38
2023-04-08T09:15:33.436Z,174.38
2023-04-08T09:16:33.482Z,174.38
2023-04-08T09:17:33.433Z,180.00
2023-04-08T09:18:33.400Z,185.62
2023-04-08T09:19:33.401Z,196.88
2023-04-08T09:20:33.384Z,196.88
2023-04-08T09:21:33.361Z,185.62
2023-04-08T09:22:33.397Z,180.00
2023-04-08T09:23:33.352Z,180.00
2023-04-08T09:24:33.335Z,191.25
2023-04-08T09:25:33.344Z,191.25
2023-04-08T09:26:33.329Z,185.62
2023-04-08T09:27:33.288Z,180.00
2023-04-08T09:28:33.283Z,185.62
2023-04-08T09:29:34.812Z,202.50
2023-04-08T09:30:33.294Z,219.38
2023-04-08T09:31:33.283Z,241.88
2023-04-08T09:32:33.288Z,258.75
2023-04-08T09:33:33.244Z,253.12
2023-04-08T09:34:33.225Z,236.25
2023-04-08T09:35:33.257Z,219.38
2023-04-08T09:36:33.235Z,213.75
2023-04-08T09:37:33.213Z,213.75
2023-04-08T09:38:33.256Z,219.38
2023-04-08T09:39:33.177Z,225.00
2023-04-08T09:40:33.168Z,219.38
2023-04-08T09:41:33.162Z,225.00
2023-04-08T09:42:33.166Z,230.62
2023-04-08T09:43:33.131Z,236.25
2023-04-08T09:44:33.114Z,241.88
2023-04-08T09:45:33.190Z,230.62
2023-04-08T09:46:33.088Z,230.62
2023-04-08T09:47:33.101Z,236.25
2023-04-08T09:48:33.071Z,236.25
2023-04-08T09:49:33.080Z,230.62
2023-04-08T09:50:33.116Z,230.62
2023-04-08T09:51:33.039Z,236.25
2023-04-08T09:52:33.038Z,236.25
2023-04-08T09:53:33.019Z,225.00
2023-04-08T09:54:33.025Z,219.38
2023-04-08T09:55:33.020Z,219.38
2023-04-08T09:56:32.984Z,225.00
2023-04-08T09:57:32.987Z,241.88
2023-04-08T09:58:32.964Z,264.38
2023-04-08T09:59:32.971Z,275.62
2023-04-08T10:00:32.946Z,275.62
2023-04-08T10:01:33.021Z,275.62
2023-04-08T10:02:33.032Z,286.88
2023-04-08T10:03:33.187Z,298.12
2023-04-08T10:04:33.079Z,315.00
2023-04-08T10:05:32.886Z,331.88
2023-04-08T10:06:32.881Z,371.25
2023-04-08T10:07:32.869Z,376.88
2023-04-08T10:08:32.850Z,360.00
2023-04-08T10:09:32.875Z,365.62
2023-04-08T10:10:32.847Z,360.00
2023-04-08T10:11:32.832Z,354.38
2023-04-08T10:12:32.842Z,376.88
2023-04-08T10:13:32.862Z,382.50
2023-04-08T10:14:32.778Z,376.88
2023-04-08T10:15:32.827Z,405.00
2023-04-08T10:16:32.842Z,433.12
2023-04-08T10:17:32.783Z,444.38
2023-04-08T10:18:32.753Z,455.62
2023-04-08T10:19:32.765Z,478.12
2023-04-08T10:20:32.724Z,545.62
2023-04-08T10:21:32.710Z,545.62
2023-04-08T10:22:32.719Z,450.00
2023-04-08T10:23:32.711Z,421.88
2023-04-08T10:24:32.698Z,382.50
2023-04-08T10:25:32.743Z,360.00
2023-04-08T10:26:32.682Z,365.62
2023-04-08T10:27:32.637Z,421.88
2023-04-08T10:28:32.710Z,483.75
2023-04-08T10:29:32.688Z,618.75
2023-04-08T10:30:32.612Z,669.38
2023-04-08T10:31:32.731Z,691.88
2023-04-08T10:32:32.614Z,866.25
2023-04-08T10:33:32.575Z,888.75
2023-04-08T10:34:32.585Z,916.88
2023-04-08T10:35:32.626Z,967.50
2023-04-08T10:36:32.564Z,922.50
2023-04-08T10:37:32.552Z,776.25
2023-04-08T10:38:32.512Z,781.88
2023-04-08T10:39:32.519Z,815.62
2023-04-08T10:40:32.509Z,984.38
2023-04-08T10:41:32.496Z,1243.12
2023-04-08T10:42:32.516Z,1282.50
2023-04-08T10:43:32.502Z,804.38
2023-04-08T10:44:32.453Z,736.88
2023-04-08T10:45:32.444Z,759.38
2023-04-08T10:46:32.449Z,759.38
2023-04-08T10:47:32.542Z,663.75
2023-04-08T10:48:32.426Z,675.00
2023-04-08T10:49:32.396Z,680.62
2023-04-08T10:50:32.408Z,832.50
2023-04-08T10:51:33.848Z,1057.50
2023-04-08T10:52:32.405Z,894.38
2023-04-08T10:53:32.400Z,804.38
2023-04-08T10:54:32.350Z,708.75
2023-04-08T10:55:32.327Z,675.00
2023-04-08T10:56:32.322Z,635.62
2023-04-08T10:57:32.320Z,607.50
2023-04-08T10:58:32.292Z,596.25
2023-04-08T10:59:32.427Z,748.12
2023-04-08T11:00:32.327Z,652.50
2023-04-08T11:01:32.307Z,596.25
2023-04-08T11:02:32.321Z,579.38
2023-04-08T11:03:32.536Z,686.25
2023-04-08T11:04:32.361Z,1305.00
2023-04-08T11:05:32.296Z,1333.12
2023-04-08T11:06:32.225Z,1417.50
2023-04-08T11:07:32.282Z,2874.38
2023-04-08T11:08:32.221Z,877.50
2023-04-08T11:09:32.190Z,810.00
2023-04-08T11:10:32.197Z,748.12
2023-04-08T11:11:32.285Z,641.25
2023-04-08T11:12:32.175Z,630.00
2023-04-08T11:13:32.172Z,579.38
2023-04-08T11:14:32.593Z,573.75
2023-04-08T11:15:32.148Z,635.62
2023-04-08T11:16:32.267Z,793.12
2023-04-08T11:17:32.151Z,720.00
2023-04-08T11:18:32.118Z,793.12
2023-04-08T11:19:32.076Z,742.50
2023-04-08T11:20:32.090Z,663.75
2023-04-08T11:21:32.073Z,663.75
2023-04-08T11:22:32.135Z,669.38
2023-04-08T11:23:32.078Z,731.25
2023-04-08T11:24:32.097Z,607.50
2023-04-08T11:25:32.081Z,596.25
2023-04-08T11:26:32.006Z,551.25
2023-04-08T11:27:32.008Z,511.88
2023-04-08T11:28:32.010Z,461.25
2023-04-08T11:29:32.067Z,421.88
2023-04-08T11:30:32.020Z,388.12
2023-04-08T11:31:32.120Z,360.00
2023-04-08T11:32:32.006Z,343.12
2023-04-08T11:33:31.946Z,331.88
2023-04-08T11:34:31.963Z,331.88
2023-04-08T11:35:31.997Z,337.50
2023-04-08T11:36:31.972Z,320.62
2023-04-08T11:37:31.941Z,309.38
2023-04-08T11:38:31.972Z,292.50
2023-04-08T11:39:31.880Z,286.88
2023-04-08T11:40:31.845Z,281.25
2023-04-08T11:41:31.857Z,281.25
2023-04-08T11:42:31.864Z,275.62
2023-04-08T11:43:31.860Z,275.62
2023-04-08T11:44:31.850Z,281.25
2023-04-08T11:45:31.834Z,275.62
2023-04-08T11:46:31.851Z,275.62
2023-04-08T11:47:31.918Z,281.25
2023-04-08T11:48:31.796Z,292.50
2023-04-08T11:49:31.742Z,309.38
2023-04-08T11:50:32.548Z,331.88
2023-04-08T11:51:31.814Z,354.38
2023-04-08T11:52:31.729Z,382.50
2023-04-08T11:53:31.708Z,405.00
2023-04-08T11:54:31.758Z,433.12
2023-04-08T11:55:31.732Z,483.75
2023-04-08T11:56:31.688Z,568.12
2023-04-08T11:57:31.735Z,2874.38
2023-04-08T11:58:31.688Z,2874.38
2023-04-08T11:59:31.695Z,1260.00
2023-04-08T12:00:31.626Z,2874.38
2023-04-08T12:01:31.743Z,2874.38
2023-04-08T12:02:31.713Z,2874.38
2023-04-08T12:03:31.781Z,1125.00
2023-04-08T12:04:31.634Z,714.38
2023-04-08T12:05:31.610Z,635.62
2023-04-08T12:06:31.655Z,562.50
2023-04-08T12:07:31.623Z,736.88
2023-04-08T12:08:31.577Z,1141.88
2023-04-08T12:09:31.607Z,1018.12
2023-04-08T12:10:31.565Z,1389.38
2023-04-08T12:11:31.582Z,1018.12
2023-04-08T12:12:31.532Z,748.12
2023-04-08T12:13:31.522Z,832.50
2023-04-08T12:14:31.480Z,686.25
2023-04-08T12:15:31.549Z,731.25
2023-04-08T12:16:31.549Z,697.50
2023-04-08T12:17:31.509Z,658.12
2023-04-08T12:18:31.431Z,624.38
2023-04-08T12:19:33.417Z,596.25
2023-04-08T12:20:31.439Z,573.75
2023-04-08T12:21:31.456Z,573.75
2023-04-08T12:22:31.458Z,911.25
2023-04-08T12:23:31.392Z,579.38
2023-04-08T12:24:31.400Z,590.62
2023-04-08T12:25:31.461Z,635.62
2023-04-08T12:26:31.436Z,635.62
2023-04-08T12:27:31.378Z,607.50
2023-04-08T12:28:31.365Z,635.62
2023-04-08T12:29:31.355Z,691.88
2023-04-08T12:30:31.327Z,826.88
2023-04-08T12:31:31.406Z,641.25
2023-04-08T12:32:31.328Z,652.50
2023-04-08T12:33:31.326Z,753.75
2023-04-08T12:34:31.273Z,2874.38
2023-04-08T12:35:31.285Z,2874.38
2023-04-08T12:36:31.296Z,2874.38
2023-04-08T12:37:31.250Z,2874.38
2023-04-08T12:38:31.280Z,2874.38
2023-04-08T12:39:31.226Z,2874.38
2023-04-08T12:40:31.232Z,2874.38
2023-04-08T12:41:31.208Z,2874.38
2023-04-08T12:42:31.278Z,2874.38
2023-04-08T12:43:31.198Z,2874.38
2023-04-08T12:44:31.241Z,2874.38
2023-04-08T12:45:31.178Z,2874.38
2023-04-08T12:46:31.330Z,2874.38
2023-04-08T12:47:31.255Z,1170.00
2023-04-08T12:48:31.157Z,1350.00
2023-04-08T12:49:36.846Z,1237.50
2023-04-08T12:50:31.175Z,1423.12